Wye Mills, MD

10:43 AM EST on February 10, 2016 (GMT -0500)
Tuckahoe Neck | | Change Station
CLOSE
Current Station
Personal Weather Station
Location: Denton, MD
Elevation: 36 ft
Nearby Weather Stations

Elev 36 ft 38.83 °N, 75.91 °W | Updated 2 minutes ago

Mostly Cloudy
Mostly Cloudy
33.9 °F
Feels Like 28 °F
N
7.0
Wind Variable Wind from West

Today
High -- | Low -- °F
--% Chance of Precip.
Yesterday
High -- | Low -- °F
Precip. -- in
Pressure 29.83 in
Visibility 10.0 miles
Clouds Mostly Cloudy 3500 ft
Windchill 28 °F
Dew Point 26 °F
Humidity 72%
Rainfall 0.00 in
Snow Depth Not available.
7:00 AM 5:34 PM
Waxing Crescent, 6% visible
METAR KESN 101453Z 31008G16KT 10SM BKN035 00/M06 A2983
Pressure 29.83 in
Visibility 10.0 miles
Clouds Mostly Cloudy 3500 ft
Windchill 28 °F
Dew Point 26 °F
Humidity 72%
Rainfall 0.00 in
Snow Depth Not available.
7:00 AM 5:34 PM
Waxing Crescent, 6% visible
METAR KESN 101453Z 31008G16KT 10SM BKN035 00/M06 A2983

10-Day Weather Forecast

Almanac

Astronomy

Feb. 10, 2016 Rise Set
Actual Time
Civil Twilight
Nautical Twilight
Astronomical Twilight
Moon
Length of Visible Light
Length of Day
Tomorrow will be .
, % of the Moon is Illuminated

Today's Extremes

State Highs State Lows

Community

WunderPhotos

Upload Photos

1,891,863 photos uploaded!

WunderBlog® & News

Nearby

Air Quality

  Air Quality AQ Index Pollutant
Not available.

Snow Depth

Station Depth Elevation

Earthquake Activity

City Distance Mag. Time & Date
Minimum magnitude displayed is 2.5.

Coastal Water Temperatures

Place Temperature

Stations

Nearby Weather Stations

Station Location Temp. Windchill Dew Point Humidity Wind Precip. Elev Updated Type
                   

Watches & Warnings

There are currently no watches in effect.